Dilligaf — WDF3436 — position and weather

sailwx.info

Track history (hours):
 
Tides and Currents Weather Stations Pressure Air Temp Water Temp Dewpoint Dewpoint Depression Visibility Wind Speed Wind Dir Waves Ship Positions

Dilligaf

Owner: teasdale, william m, bellevue, WA. More information available from US FCC via Universal Licensing System and Coast Guard Vessel Documentation Center.

Last reported at 2018-May-30 18:33 UTC. Time now 2018-Jul-19 09:42 UTC.
Position N 54°33' W 130°42'.
Warning: this ship's position is 49 days out of date.

Length 14 m.

Type: Sailing vessel. MMSI: 367439860.

Date/timePositionNaut miles runAvg speedWind from/ knotsBaromVisibWave heightAir tempDewpointWater temp
2018-May-30 18:33N 54°33' W 130°42'2 8.6
2018-May-30 18:16N 54°31' W 130°40'2 8.3
2018-May-30 17:58N 54°29' W 130°38'4 7.9
2018-May-30 17:30N 54°25' W 130°35'4 7.4
2018-May-30 16:57N 54°22' W 130°32'3 6.3
2018-May-30 16:30N 54°20' W 130°29'3 5.4
2018-May-30 15:59N 54°19' W 130°24'3 5.2
2018-May-30 15:26N 54°19' W 130°19'0 0.0
2018-May-30 04:55N 54°19' W 130°19'0 0.0
2018-May-28 19:26N 54°19' W 130°19'0 0.2
2018-May-28 18:54N 54°19' W 130°19'1 1.2
2018-May-28 18:24N 54°19' W 130°20'3 8.6
2018-May-28 18:00N 54°16' W 130°21'5 9.3
2018-May-28 17:30N 54°11' W 130°21'5 9.2
2018-May-28 17:00N 54°07' W 130°19'5 9.3
2018-May-28 16:30N 54°02' W 130°15'5 9.6
2018-May-28 16:00N 53°58' W 130°12'4 8.5
2018-May-28 15:30N 53°54' W 130°09'  
2018-May-21 19:01N 52°09' W 128°08'0 8.1
2018-May-21 18:58N 52°08' W 128°08'11 6.6
2018-May-21 17:22N 52°00' W 127°57'3 7.1
2018-May-21 16:59N 51°58' W 127°57'3 7.1
2018-May-21 16:30N 51°54' W 127°58'4 7.6
2018-May-21 16:00N 51°51' W 127°59'4 7.8
2018-May-21 15:30N 51°47' W 127°60'4 7.2
2018-May-21 15:00N 51°44' W 128°03'4 7.6
2018-May-21 14:30N 51°40' W 128°05'2 0.1
2018-May-20 22:34N 51°39' W 128°07'0 0.0
2018-May-20 22:28N 51°39' W 128°07'0 0.0
2018-May-20 21:58N 51°39' W 128°07'  
Track history (hours):
 
Tides and Currents Weather Stations Pressure Air Temp Water Temp Dewpoint Dewpoint Depression Visibility Wind Speed Wind Dir Waves Ship Positions

Dilligaf

Owner: teasdale, william m, bellevue, WA. More information available from US FCC via Universal Licensing System and Coast Guard Vessel Documentation Center.

Last reported at 2018-May-30 18:33 UTC. Time now 2018-Jul-19 09:42 UTC.
Position N 54°33' W 130°42'.
Warning: this ship's position is 49 days out of date.

Length 14 m.

Type: Sailing vessel. MMSI: 367439860.

Date/timePositionNaut miles runAvg speedWind from/ knotsBaromVisibWave heightAir tempDewpointWater temp
2018-May-30 18:33N 54°33' W 130°42'2 8.6
2018-May-30 18:16N 54°31' W 130°40'2 8.3
2018-May-30 17:58N 54°29' W 130°38'4 7.9
2018-May-30 17:30N 54°25' W 130°35'4 7.4
2018-May-30 16:57N 54°22' W 130°32'3 6.3
2018-May-30 16:30N 54°20' W 130°29'3 5.4
2018-May-30 15:59N 54°19' W 130°24'3 5.2
2018-May-30 15:26N 54°19' W 130°19'0 0.0
2018-May-30 04:55N 54°19' W 130°19'0 0.0
2018-May-28 19:26N 54°19' W 130°19'0 0.2
2018-May-28 18:54N 54°19' W 130°19'1 1.2
2018-May-28 18:24N 54°19' W 130°20'3 8.6
2018-May-28 18:00N 54°16' W 130°21'5 9.3
2018-May-28 17:30N 54°11' W 130°21'5 9.2
2018-May-28 17:00N 54°07' W 130°19'5 9.3
2018-May-28 16:30N 54°02' W 130°15'5 9.6
2018-May-28 16:00N 53°58' W 130°12'4 8.5
2018-May-28 15:30N 53°54' W 130°09'  
2018-May-21 19:01N 52°09' W 128°08'0 8.1
2018-May-21 18:58N 52°08' W 128°08'11 6.6
2018-May-21 17:22N 52°00' W 127°57'3 7.1
2018-May-21 16:59N 51°58' W 127°57'3 7.1
2018-May-21 16:30N 51°54' W 127°58'4 7.6
2018-May-21 16:00N 51°51' W 127°59'4 7.8
2018-May-21 15:30N 51°47' W 127°60'4 7.2
2018-May-21 15:00N 51°44' W 128°03'4 7.6
2018-May-21 14:30N 51°40' W 128°05'2 0.1
2018-May-20 22:34N 51°39' W 128°07'0 0.0
2018-May-20 22:28N 51°39' W 128°07'0 0.0
2018-May-20 21:58N 51°39' W 128°07'  

Dump ship's entire track history